Colorado City, Texas
Current Conditions -  °F | °C
As of 6:35 AM on Thursday 23 Oct 2014 (Local Time) from KSNK Reporting Station
Broken Clouds Broken Clouds  
Wind Chill: 56°   Ceiling: 1400
Heat Index: 56°   Visibility: 10mi
Dew Point: 55°   Wind: 5mph
Humidity: 93%   Direction: 180°S
Pressure: 30.13"   Gusts: NA
Location:  32.39°N, 100.86°W
Report Text: KSNK 231135Z AUTO 18004KT 10SM BKN014 14/13 A3013 RMK AO2 T01360125
Loading
Personal Weather Stations






























Interactive Weather Map
Tropical Storm Tracking
New forecast layout! Learn more

10-Day Weather Forecast

Advertisements
Track Severe Weather on mobile